Meadville, Missouri
Current Conditions -  °F | °C
As of 3:55 AM on Sunday 21 Dec 2014 (Local Time) from KIRK Reporting Station
Overcast Overcast  
Wind Chill:   Ceiling: 1900
Heat Index:   Visibility: 8mi
Dew Point:   Wind: 8mph
Humidity: 86%   Direction: 190°S
Pressure: 30.12"   Gusts: NA
Location:  39.78°N, 93.3°W
Report Text: KIRK 210955Z AUTO 19007KT 8SM OVC019 04/02 A3012 RMK AO2 SLP210 T00390017
Loading
Personal Weather Stations






























Interactive Weather Map New forecast layout! Learn more

10-Day Weather Forecast

Advertisements
Track Severe Weather on mobile